Musashi — JD3817 — position and weather

sailwx.info

Track history (hours):
 
Tides and Currents Weather Stations Pressure Air Temp Water Temp Dewpoint Dewpoint Depression Visibility Wind Speed Wind Dir Waves Ship Positions

Musashi

Last reported at 2018-Jun-18 06:17 UTC. Time now 2018-Jun-18 15:10 UTC.
Position N 35°39' E 139°47'.

Length 37 m; draft 2.8 m.

Type: Tug. MMSI: 431006206.

Date/timePositionNaut miles runAvg speedWind from/ knotsBaromVisibWave heightAir tempDewpointWater temp
2018-Jun-18 06:17N 35°39' E 139°47'1 0.3
2018-Jun-18 03:37N 35°39' E 139°46'111.3
2018-Jun-18 03:30N 35°37' E 139°46'1 2.2
2018-Jun-18 03:00N 35°37' E 139°47'2 3.1
2018-Jun-18 02:30N 35°35' E 139°48'1 1.4
2018-Jun-18 01:58N 35°36' E 139°47'2 0.1
2018-Jun-16 23:55N 35°38' E 139°46'2 1.5
2018-Jun-16 22:50N 35°36' E 139°46'1 2.6
2018-Jun-16 22:27N 35°36' E 139°47'4 7.5
2018-Jun-16 21:59N 35°33' E 139°50'0 0.4
2018-Jun-16 21:30N 35°34' E 139°50'4 6.7
2018-Jun-16 20:52N 35°36' E 139°47'0 0.8
2018-Jun-16 20:29N 35°37' E 139°47'2 3.1
2018-Jun-16 19:59N 35°38' E 139°46'0 0.0
2018-Jun-16 11:21N 35°38' E 139°46'3 7.9
2018-Jun-16 10:59N 35°36' E 139°47'1 1.8
2018-Jun-16 10:15N 35°37' E 139°46'0 0.0
2018-Jun-16 09:57N 35°37' E 139°46'1 0.8
2018-Jun-16 08:27N 35°38' E 139°46'2 2.1
2018-Jun-16 07:37N 35°36' E 139°46'1 4.4
2018-Jun-16 07:26N 35°36' E 139°47'3 5.7
2018-Jun-16 07:00N 35°34' E 139°49'4 6.2
2018-Jun-16 06:22N 35°37' E 139°46'2 5.1
2018-Jun-16 05:59N 35°39' E 139°47'0 0.3
2018-Jun-16 05:30N 35°39' E 139°46'1 0.1
2018-Jun-15 23:36N 35°38' E 139°46'1 8.8
2018-Jun-15 23:29N 35°37' E 139°46'2 3.2
2018-Jun-15 22:53N 35°36' E 139°47'1 3.8
2018-Jun-15 22:30N 35°35' E 139°48'2 4.0
2018-Jun-15 21:57N 35°36' E 139°46'2 0.2
2018-Jun-15 11:33N 35°38' E 139°46'110.9
2018-Jun-15 11:26N 35°37' E 139°46'3 1.2
2018-Jun-15 09:09N 35°35' E 139°48'1 4.5
2018-Jun-15 08:58N 35°34' E 139°49'1 2.6
2018-Jun-15 08:29N 35°35' E 139°48'1 1.9
2018-Jun-15 08:00N 35°35' E 139°47'0 0.0
2018-Jun-15 07:29N 35°35' E 139°47'1 1.4
2018-Jun-15 06:29N 35°37' E 139°46'2 0.2
2018-Jun-14 21:33N 35°39' E 139°46'112.0
2018-Jun-14 21:30N 35°38' E 139°46'0 0.4
2018-Jun-14 20:28N 35°37' E 139°46'0 0.0
2018-Jun-14 10:09N 35°37' E 139°46'1 2.4
2018-Jun-14 09:51N 35°36' E 139°46'4 2.9
2018-Jun-14 08:37N 35°34' E 139°49'0 0.6
2018-Jun-14 08:26N 35°34' E 139°49'  
2018-Jun-11 05:12N 35°38' E 139°46'2 2.4
2018-Jun-11 04:30N 35°36' E 139°46'2 3.5
2018-Jun-11 04:00N 35°35' E 139°47'2 3.1
2018-Jun-11 03:30N 35°34' E 139°49'4 7.6
2018-Jun-11 03:00N 35°37' E 139°46'1 0.4
2018-Jun-10 23:57N 35°38' E 139°46'3 2.5
2018-Jun-10 22:55N 35°36' E 139°47'2 5.0
2018-Jun-10 22:30N 35°34' E 139°49'5 4.9
2018-Jun-10 21:30N 35°31' E 139°54'612.3
2018-Jun-10 21:00N 35°35' E 139°48'4 0.2
2018-Jun-10 04:48N 35°39' E 139°46'3 9.0
2018-Jun-10 04:30N 35°36' E 139°47'3 5.1
2018-Jun-10 04:00N 35°39' E 139°47'0 0.6
2018-Jun-10 03:27N 35°39' E 139°46'0 0.1
2018-Jun-09 23:11N 35°39' E 139°46'0 1.8
2018-Jun-09 22:56N 35°39' E 139°46'2 3.4
2018-Jun-09 22:28N 35°37' E 139°46'4 7.7
2018-Jun-09 21:59N 35°34' E 139°48'4 7.4
2018-Jun-09 21:28N 35°38' E 139°46'1 0.1
2018-Jun-09 09:56N 35°38' E 139°46'3 2.9
2018-Jun-09 08:59N 35°36' E 139°47'2 3.4
2018-Jun-09 08:29N 35°35' E 139°49'4 6.9
2018-Jun-09 07:57N 35°37' E 139°46'1 0.1
2018-Jun-08 23:57N 35°38' E 139°46'2 2.2
2018-Jun-08 23:11N 35°37' E 139°47'1 1.9
2018-Jun-08 22:50N 35°37' E 139°48'2 5.1
2018-Jun-08 22:30N 35°35' E 139°48'1 0.6
2018-Jun-08 21:01N 35°35' E 139°47'111.2
2018-Jun-08 20:58N 35°36' E 139°47'2 4.6
2018-Jun-08 20:29N 35°38' E 139°46'  
Track history (hours):
 
Tides and Currents Weather Stations Pressure Air Temp Water Temp Dewpoint Dewpoint Depression Visibility Wind Speed Wind Dir Waves Ship Positions

Musashi

Last reported at 2018-Jun-18 06:17 UTC. Time now 2018-Jun-18 15:10 UTC.
Position N 35°39' E 139°47'.

Length 37 m; draft 2.8 m.

Type: Tug. MMSI: 431006206.

Date/timePositionNaut miles runAvg speedWind from/ knotsBaromVisibWave heightAir tempDewpointWater temp
2018-Jun-18 06:17N 35°39' E 139°47'1 0.3
2018-Jun-18 03:37N 35°39' E 139°46'111.3
2018-Jun-18 03:30N 35°37' E 139°46'1 2.2
2018-Jun-18 03:00N 35°37' E 139°47'2 3.1
2018-Jun-18 02:30N 35°35' E 139°48'1 1.4
2018-Jun-18 01:58N 35°36' E 139°47'2 0.1
2018-Jun-16 23:55N 35°38' E 139°46'2 1.5
2018-Jun-16 22:50N 35°36' E 139°46'1 2.6
2018-Jun-16 22:27N 35°36' E 139°47'4 7.5
2018-Jun-16 21:59N 35°33' E 139°50'0 0.4
2018-Jun-16 21:30N 35°34' E 139°50'4 6.7
2018-Jun-16 20:52N 35°36' E 139°47'0 0.8
2018-Jun-16 20:29N 35°37' E 139°47'2 3.1
2018-Jun-16 19:59N 35°38' E 139°46'0 0.0
2018-Jun-16 11:21N 35°38' E 139°46'3 7.9
2018-Jun-16 10:59N 35°36' E 139°47'1 1.8
2018-Jun-16 10:15N 35°37' E 139°46'0 0.0
2018-Jun-16 09:57N 35°37' E 139°46'1 0.8
2018-Jun-16 08:27N 35°38' E 139°46'2 2.1
2018-Jun-16 07:37N 35°36' E 139°46'1 4.4
2018-Jun-16 07:26N 35°36' E 139°47'3 5.7
2018-Jun-16 07:00N 35°34' E 139°49'4 6.2
2018-Jun-16 06:22N 35°37' E 139°46'2 5.1
2018-Jun-16 05:59N 35°39' E 139°47'0 0.3
2018-Jun-16 05:30N 35°39' E 139°46'1 0.1
2018-Jun-15 23:36N 35°38' E 139°46'1 8.8
2018-Jun-15 23:29N 35°37' E 139°46'2 3.2
2018-Jun-15 22:53N 35°36' E 139°47'1 3.8
2018-Jun-15 22:30N 35°35' E 139°48'2 4.0
2018-Jun-15 21:57N 35°36' E 139°46'2 0.2
2018-Jun-15 11:33N 35°38' E 139°46'110.9
2018-Jun-15 11:26N 35°37' E 139°46'3 1.2
2018-Jun-15 09:09N 35°35' E 139°48'1 4.5
2018-Jun-15 08:58N 35°34' E 139°49'1 2.6
2018-Jun-15 08:29N 35°35' E 139°48'1 1.9
2018-Jun-15 08:00N 35°35' E 139°47'0 0.0
2018-Jun-15 07:29N 35°35' E 139°47'1 1.4
2018-Jun-15 06:29N 35°37' E 139°46'2 0.2
2018-Jun-14 21:33N 35°39' E 139°46'112.0
2018-Jun-14 21:30N 35°38' E 139°46'0 0.4
2018-Jun-14 20:28N 35°37' E 139°46'0 0.0
2018-Jun-14 10:09N 35°37' E 139°46'1 2.4
2018-Jun-14 09:51N 35°36' E 139°46'4 2.9
2018-Jun-14 08:37N 35°34' E 139°49'0 0.6
2018-Jun-14 08:26N 35°34' E 139°49'  
2018-Jun-11 05:12N 35°38' E 139°46'2 2.4
2018-Jun-11 04:30N 35°36' E 139°46'2 3.5
2018-Jun-11 04:00N 35°35' E 139°47'2 3.1
2018-Jun-11 03:30N 35°34' E 139°49'4 7.6
2018-Jun-11 03:00N 35°37' E 139°46'1 0.4
2018-Jun-10 23:57N 35°38' E 139°46'3 2.5
2018-Jun-10 22:55N 35°36' E 139°47'2 5.0
2018-Jun-10 22:30N 35°34' E 139°49'5 4.9
2018-Jun-10 21:30N 35°31' E 139°54'612.3
2018-Jun-10 21:00N 35°35' E 139°48'4 0.2
2018-Jun-10 04:48N 35°39' E 139°46'3 9.0
2018-Jun-10 04:30N 35°36' E 139°47'3 5.1
2018-Jun-10 04:00N 35°39' E 139°47'0 0.6
2018-Jun-10 03:27N 35°39' E 139°46'0 0.1
2018-Jun-09 23:11N 35°39' E 139°46'0 1.8
2018-Jun-09 22:56N 35°39' E 139°46'2 3.4
2018-Jun-09 22:28N 35°37' E 139°46'4 7.7
2018-Jun-09 21:59N 35°34' E 139°48'4 7.4
2018-Jun-09 21:28N 35°38' E 139°46'1 0.1
2018-Jun-09 09:56N 35°38' E 139°46'3 2.9
2018-Jun-09 08:59N 35°36' E 139°47'2 3.4
2018-Jun-09 08:29N 35°35' E 139°49'4 6.9
2018-Jun-09 07:57N 35°37' E 139°46'1 0.1
2018-Jun-08 23:57N 35°38' E 139°46'2 2.2
2018-Jun-08 23:11N 35°37' E 139°47'1 1.9
2018-Jun-08 22:50N 35°37' E 139°48'2 5.1
2018-Jun-08 22:30N 35°35' E 139°48'1 0.6
2018-Jun-08 21:01N 35°35' E 139°47'111.2
2018-Jun-08 20:58N 35°36' E 139°47'2 4.6
2018-Jun-08 20:29N 35°38' E 139°46'  

Dump ship's entire track history